createdAt,value
2023-04-28T00:02:37.852Z,3.60
2023-04-28T00:05:25.690Z,3.60
2023-04-28T00:08:14.749Z,3.60
2023-04-28T00:11:02.341Z,3.60
2023-04-28T00:13:49.726Z,3.70
2023-04-28T00:16:37.537Z,3.60
2023-04-28T00:19:25.156Z,3.60
2023-04-28T00:22:13.015Z,3.60
2023-04-28T00:25:02.261Z,3.60
2023-04-28T00:27:50.290Z,3.60
2023-04-28T00:30:38.090Z,3.60
2023-04-28T00:33:25.552Z,3.60
2023-04-28T00:36:13.411Z,3.70
2023-04-28T00:39:01.279Z,3.70
2023-04-28T00:41:50.184Z,3.70
2023-04-28T00:44:41.094Z,3.80
2023-04-28T00:47:28.568Z,3.80
2023-04-28T00:50:18.302Z,3.70
2023-04-28T00:53:06.044Z,3.70
2023-04-28T00:55:57.210Z,3.70
2023-04-28T00:58:46.557Z,3.70
2023-04-28T01:01:34.397Z,3.60
2023-04-28T01:04:23.227Z,3.50
2023-04-28T01:07:11.850Z,3.40
2023-04-28T01:09:59.680Z,3.30
2023-04-28T01:12:51.726Z,3.30
2023-04-28T01:15:41.424Z,3.20
2023-04-28T01:18:29.037Z,3.20
2023-04-28T01:21:29.074Z,3.20
2023-04-28T01:24:19.417Z,3.20
2023-04-28T01:27:07.300Z,3.20
2023-04-28T01:29:54.925Z,3.20
2023-04-28T01:32:43.074Z,3.20
2023-04-28T01:35:31.129Z,3.20
2023-04-28T01:38:18.520Z,3.30
2023-04-28T01:41:07.455Z,3.30
2023-04-28T01:43:55.255Z,3.30
2023-04-28T01:46:43.009Z,3.30
2023-04-28T01:49:30.239Z,3.30
2023-04-28T01:52:19.894Z,3.40
2023-04-28T01:55:08.829Z,3.40
2023-04-28T01:57:59.594Z,3.40
2023-04-28T02:00:49.349Z,3.40
2023-04-28T02:03:37.651Z,3.40
2023-04-28T02:06:25.356Z,3.50
2023-04-28T02:09:12.831Z,3.50
2023-04-28T02:12:02.455Z,3.50
2023-04-28T02:14:52.266Z,3.50
2023-04-28T02:17:40.859Z,3.50
2023-04-28T02:20:28.342Z,3.50
2023-04-28T02:23:16.089Z,3.50
2023-04-28T02:26:03.709Z,3.50
2023-04-28T02:28:51.229Z,3.50
2023-04-28T02:31:40.512Z,3.50
2023-04-28T02:34:28.357Z,3.60
2023-04-28T02:37:16.152Z,3.60
2023-04-28T02:40:03.752Z,3.60
2023-04-28T02:42:51.146Z,3.60
2023-04-28T02:45:38.780Z,3.60
2023-04-28T02:48:27.798Z,3.60
2023-04-28T02:51:15.469Z,3.60
2023-04-28T02:54:02.838Z,3.60
2023-04-28T02:56:50.517Z,3.60
2023-04-28T02:59:38.344Z,3.60
2023-04-28T03:02:25.834Z,3.60
2023-04-28T03:05:14.552Z,3.70
2023-04-28T03:08:02.183Z,3.70
2023-04-28T03:10:49.749Z,3.70
2023-04-28T03:13:37.284Z,3.70
2023-04-28T03:16:25.424Z,3.70
2023-04-28T03:19:13.768Z,3.70
2023-04-28T03:22:02.832Z,3.70
2023-04-28T03:24:53.808Z,3.70
2023-04-28T03:27:41.221Z,3.70
2023-04-28T03:30:28.906Z,3.80
2023-04-28T03:33:18.068Z,3.80
2023-04-28T03:36:06.040Z,3.80
2023-04-28T03:38:55.180Z,3.80
2023-04-28T03:41:42.582Z,3.80
2023-04-28T03:44:49.059Z,3.80
2023-04-28T03:47:36.850Z,3.80
2023-04-28T03:50:26.566Z,3.80
2023-04-28T03:53:15.560Z,3.80
2023-04-28T03:56:04.396Z,3.80
2023-04-28T03:58:51.813Z,3.80
2023-04-28T04:01:39.484Z,3.70
2023-04-28T04:04:27.495Z,3.70
2023-04-28T04:07:17.064Z,3.80
2023-04-28T04:10:05.046Z,3.80
2023-04-28T04:12:56.077Z,3.90
2023-04-28T04:15:43.990Z,3.90
2023-04-28T04:18:31.895Z,4.00
2023-04-28T04:21:52.065Z,4.10
2023-04-28T04:24:39.763Z,4.30
2023-04-28T04:27:27.403Z,4.50
2023-04-28T04:30:17.346Z,4.70
2023-04-28T04:33:05.001Z,4.90
2023-04-28T04:35:53.252Z,5.20
2023-04-28T04:38:40.939Z,5.40
2023-04-28T04:41:36.774Z,5.60
2023-04-28T04:44:39.907Z,5.80
2023-04-28T04:47:33.520Z,6.00
2023-04-28T04:50:21.421Z,6.10
2023-04-28T04:53:12.693Z,6.20
2023-04-28T04:56:02.786Z,6.30
2023-04-28T04:58:53.070Z,6.40
2023-04-28T05:01:43.467Z,6.60
2023-04-28T05:04:32.825Z,6.60
2023-04-28T05:07:20.326Z,6.70
2023-04-28T05:10:11.549Z,6.90
2023-04-28T05:12:59.838Z,6.90
2023-04-28T05:15:47.460Z,7.00
2023-04-28T05:18:48.851Z,7.10
2023-04-28T05:21:37.871Z,7.10
2023-04-28T05:24:26.249Z,7.10
2023-04-28T05:27:13.862Z,7.20
2023-04-28T05:30:01.237Z,7.20
2023-04-28T05:32:49.248Z,7.30
2023-04-28T05:35:37.533Z,7.30
2023-04-28T05:38:27.377Z,7.40
2023-04-28T05:41:16.446Z,7.50
2023-04-28T05:44:04.919Z,7.60
2023-04-28T05:46:52.856Z,7.70
2023-04-28T05:49:45.475Z,7.70
2023-04-28T05:52:33.200Z,7.80
2023-04-28T05:55:22.424Z,7.80
2023-04-28T05:58:09.989Z,7.90
2023-04-28T06:00:58.371Z,8.00
2023-04-28T06:03:46.614Z,8.00
2023-04-28T06:06:34.596Z,8.10
2023-04-28T06:09:22.668Z,8.20
2023-04-28T06:12:11.930Z,8.30
2023-04-28T06:15:01.289Z,8.50
2023-04-28T06:17:49.462Z,8.80
2023-04-28T06:20:37.749Z,9.10
2023-04-28T06:23:25.072Z,9.30
2023-04-28T06:26:15.208Z,9.40
2023-04-28T06:29:05.835Z,9.50
2023-04-28T06:31:57.608Z,9.70
2023-04-28T06:34:45.833Z,9.80
2023-04-28T06:37:33.413Z,9.90
2023-04-28T06:40:21.122Z,10.10
2023-04-28T06:43:13.621Z,10.30
2023-04-28T06:46:26.073Z,10.60
2023-04-28T06:49:13.793Z,10.70
2023-04-28T06:52:01.353Z,10.80
2023-04-28T06:54:51.557Z,10.70
2023-04-28T06:57:39.237Z,10.70
2023-04-28T07:00:27.082Z,10.70
2023-04-28T07:03:16.160Z,10.70
2023-04-28T07:06:04.249Z,10.70
2023-04-28T07:08:51.837Z,10.80
2023-04-28T07:11:39.423Z,10.90
2023-04-28T07:14:26.993Z,11.00
2023-04-28T07:17:14.692Z,11.30
2023-04-28T07:20:04.318Z,11.60
2023-04-28T07:22:51.622Z,12.00
2023-04-28T07:25:40.355Z,12.30
2023-04-28T07:28:28.236Z,12.50
2023-04-28T07:31:15.659Z,12.70
2023-04-28T07:34:03.082Z,13.00
2023-04-28T07:36:51.824Z,13.20
2023-04-28T07:39:40.702Z,13.60
2023-04-28T07:42:28.487Z,13.80
2023-04-28T07:45:16.976Z,14.10
2023-04-28T07:48:04.795Z,14.30
2023-04-28T07:50:52.512Z,14.70
2023-04-28T07:53:41.556Z,15.10
2023-04-28T07:56:29.143Z,15.40
2023-04-28T07:59:44.342Z,15.60
2023-04-28T08:02:32.205Z,15.80
2023-04-28T08:05:20.053Z,15.80
2023-04-28T08:08:28.882Z,15.80
2023-04-28T08:11:48.876Z,15.70
2023-04-28T08:15:01.568Z,15.90
2023-04-28T08:17:49.341Z,16.00
2023-04-28T08:21:03.771Z,16.30
2023-04-28T08:23:51.350Z,16.60
2023-04-28T08:26:39.115Z,16.80
2023-04-28T08:33:51.383Z,17.20
2023-04-28T08:36:38.883Z,17.40
2023-04-28T08:39:27.900Z,17.70
2023-04-28T08:42:15.797Z,17.90
2023-04-28T08:45:06.054Z,17.90
2023-04-28T08:47:56.221Z,18.20
2023-04-28T08:50:50.139Z,18.40
2023-04-28T08:54:06.131Z,18.70
2023-04-28T08:56:48.725Z,18.70
2023-04-28T08:59:36.425Z,18.50
2023-04-28T09:02:25.518Z,18.50
2023-04-28T09:05:15.760Z,18.40
2023-04-28T09:08:04.056Z,18.40
2023-04-28T09:11:08.625Z,18.40
2023-04-28T09:14:14.261Z,18.10
2023-04-28T09:17:02.926Z,18.10
2023-04-28T09:19:51.983Z,18.30
2023-04-28T09:22:39.797Z,18.30
2023-04-28T09:25:28.061Z,18.50
2023-04-28T09:28:23.187Z,18.80
2023-04-28T09:31:25.255Z,18.90
2023-04-28T09:34:13.418Z,19.10
2023-04-28T09:37:15.671Z,19.40
2023-04-28T09:40:09.490Z,19.60
2023-04-28T09:42:57.246Z,19.50
2023-04-28T09:45:45.893Z,19.50
2023-04-28T09:48:35.553Z,19.40
2023-04-28T09:51:23.404Z,19.50
2023-04-28T09:54:13.856Z,19.50
2023-04-28T09:57:01.962Z,19.60
2023-04-28T09:59:50.958Z,19.90
2023-04-28T10:02:43.679Z,20.30
2023-04-28T10:05:33.162Z,20.30
2023-04-28T10:08:21.751Z,20.20
2023-04-28T10:11:11.141Z,20.40
2023-04-28T10:13:58.672Z,20.50
2023-04-28T10:16:47.785Z,20.80
2023-04-28T10:19:36.159Z,21.00
2023-04-28T10:22:49.164Z,21.10
2023-04-28T10:25:39.234Z,21.00
2023-04-28T10:28:28.756Z,21.00
2023-04-28T10:31:18.259Z,20.90
2023-04-28T10:34:25.556Z,21.00
2023-04-28T10:37:15.031Z,21.40
2023-04-28T10:40:36.431Z,21.50
2023-04-28T10:43:40.097Z,21.70
2023-04-28T10:46:27.934Z,21.80
2023-04-28T10:49:15.670Z,21.60
2023-04-28T10:52:03.331Z,21.60
2023-04-28T10:55:24.151Z,21.80
2023-04-28T10:58:34.373Z,22.20
2023-04-28T11:01:32.545Z,22.60
2023-04-28T11:04:20.602Z,22.40
2023-04-28T11:07:14.732Z,22.10
2023-04-28T11:10:02.912Z,22.00
2023-04-28T11:13:24.352Z,22.20
2023-04-28T11:16:11.954Z,22.30
2023-04-28T11:19:05.804Z,22.40
2023-04-28T11:21:55.134Z,22.60
2023-04-28T11:24:43.026Z,22.60
2023-04-28T11:27:31.816Z,22.80
2023-04-28T11:30:24.226Z,22.90
2023-04-28T11:33:12.058Z,23.10
2023-04-28T11:36:01.088Z,23.00
2023-04-28T11:38:49.379Z,22.70
2023-04-28T11:41:38.584Z,22.60
2023-04-28T11:44:28.149Z,22.60
2023-04-28T11:47:15.807Z,22.60
2023-04-28T11:50:03.723Z,22.80
2023-04-28T11:52:53.816Z,23.00
2023-04-28T11:55:41.670Z,22.80
2023-04-28T11:58:29.083Z,22.50
2023-04-28T12:01:16.694Z,22.60
2023-04-28T12:04:05.097Z,23.00
2023-04-28T12:07:01.442Z,23.30
2023-04-28T12:10:10.904Z,23.70
2023-04-28T12:12:58.485Z,23.70
2023-04-28T12:15:46.454Z,23.70
2023-04-28T12:18:34.401Z,23.70
2023-04-28T12:21:22.973Z,23.70
2023-04-28T12:24:18.607Z,23.70
2023-04-28T12:27:21.927Z,23.50
2023-04-28T12:30:31.108Z,23.20
2023-04-28T12:33:26.144Z,22.80
2023-04-28T12:36:13.971Z,22.60
2023-04-28T12:39:01.996Z,22.60
2023-04-28T12:41:49.629Z,23.10
2023-04-28T12:44:40.962Z,23.50
2023-04-28T12:47:29.208Z,23.20
2023-04-28T12:50:16.857Z,23.00
2023-04-28T12:53:04.911Z,22.90
2023-04-28T12:55:53.062Z,22.70
2023-04-28T12:58:42.424Z,22.50
2023-04-28T13:01:31.722Z,22.30
2023-04-28T13:04:19.842Z,22.30
2023-04-28T13:07:08.428Z,22.30
2023-04-28T13:09:57.393Z,22.30
2023-04-28T13:12:44.996Z,22.40
2023-04-28T13:15:32.653Z,22.40
2023-04-28T13:18:23.568Z,22.40
2023-04-28T13:21:11.860Z,22.40
2023-04-28T13:23:59.450Z,22.50
2023-04-28T13:26:47.361Z,22.30
2023-04-28T13:29:35.177Z,22.20
2023-04-28T13:32:22.920Z,22.60
2023-04-28T13:35:12.024Z,23.20
2023-04-28T13:38:02.637Z,23.50
2023-04-28T13:40:50.413Z,23.90
2023-04-28T13:43:38.387Z,24.60
2023-04-28T13:46:25.823Z,25.00
2023-04-28T13:49:13.530Z,25.40
2023-04-28T13:52:03.666Z,25.60
2023-04-28T13:54:51.189Z,25.30
2023-04-28T13:57:39.191Z,24.40
2023-04-28T14:00:26.943Z,24.10
2023-04-28T14:03:15.800Z,23.80
2023-04-28T14:06:04.349Z,23.60
2023-04-28T14:08:53.410Z,23.20
2023-04-28T14:11:41.209Z,23.10
2023-04-28T14:14:28.936Z,23.50
2023-04-28T14:17:16.738Z,23.90
2023-04-28T14:20:05.067Z,24.20
2023-04-28T14:22:52.479Z,24.60
2023-04-28T14:25:41.695Z,24.80
2023-04-28T14:28:29.752Z,25.10
2023-04-28T14:31:18.219Z,25.30
2023-04-28T14:34:05.760Z,25.20
2023-04-28T14:36:53.374Z,25.20
2023-04-28T14:39:41.188Z,25.20
2023-04-28T14:42:32.449Z,25.20
2023-04-28T14:45:20.183Z,24.70
2023-04-28T14:48:10.556Z,24.10
2023-04-28T14:50:59.778Z,24.00
2023-04-28T14:53:47.238Z,23.80
2023-04-28T14:56:34.746Z,23.60
2023-04-28T14:59:24.102Z,22.90
2023-04-28T15:02:12.091Z,22.30
2023-04-28T15:05:00.197Z,21.80
2023-04-28T15:07:48.344Z,21.40
2023-04-28T15:10:40.661Z,20.90
2023-04-28T15:13:28.764Z,20.60
2023-04-28T15:16:17.725Z,20.30
2023-04-28T15:19:06.557Z,20.10
2023-04-28T15:21:54.214Z,20.00
2023-04-28T15:24:41.771Z,19.90
2023-04-28T15:27:29.557Z,19.90
2023-04-28T15:30:17.110Z,20.10
2023-04-28T15:33:06.508Z,20.00
2023-04-28T15:35:54.550Z,19.80
2023-04-28T15:38:43.126Z,19.70
2023-04-28T15:41:31.010Z,19.60
2023-04-28T15:44:18.737Z,19.50
2023-04-28T15:47:06.299Z,19.30
2023-04-28T15:49:55.556Z,19.10
2023-04-28T15:52:46.163Z,18.90
2023-04-28T15:55:33.944Z,18.90
2023-04-28T15:58:21.684Z,18.80
2023-04-28T16:01:09.446Z,18.70
2023-04-28T16:03:57.392Z,18.60
2023-04-28T16:06:46.582Z,18.40
2023-04-28T16:09:34.121Z,18.30
2023-04-28T16:12:21.800Z,18.20
2023-04-28T16:15:12.361Z,18.20
2023-04-28T16:18:00.461Z,18.10
2023-04-28T16:20:48.145Z,18.00
2023-04-28T16:23:37.869Z,18.00
2023-04-28T16:26:26.004Z,17.80
2023-04-28T16:29:14.395Z,17.80
2023-04-28T16:32:02.370Z,17.70
2023-04-28T16:34:51.075Z,17.70
2023-04-28T16:37:39.282Z,17.70
2023-04-28T16:40:29.082Z,17.60
2023-04-28T16:43:16.687Z,17.50
2023-04-28T16:46:04.474Z,17.40
2023-04-28T16:48:51.928Z,17.30
2023-04-28T16:51:39.581Z,17.20
2023-04-28T16:54:28.443Z,17.10
2023-04-28T16:57:17.664Z,17.00
2023-04-28T17:00:06.394Z,16.90
2023-04-28T17:02:54.349Z,16.70
2023-04-28T17:05:42.175Z,16.60
2023-04-28T17:08:29.685Z,16.50
2023-04-28T17:11:18.723Z,16.40
2023-04-28T17:14:07.985Z,16.30
2023-04-28T17:16:55.983Z,16.20
2023-04-28T17:19:43.835Z,16.10
2023-04-28T17:22:33.042Z,16.10
2023-04-28T17:25:21.050Z,16.00
2023-04-28T17:28:08.778Z,16.00
2023-04-28T17:30:58.077Z,15.90
2023-04-28T17:33:45.880Z,15.80
2023-04-28T17:36:33.762Z,15.80
2023-04-28T17:39:21.418Z,15.70
2023-04-28T17:42:08.837Z,15.60
2023-04-28T17:44:56.475Z,15.50
2023-04-28T17:47:45.662Z,15.40
2023-04-28T17:50:33.332Z,15.40
2023-04-28T17:53:21.640Z,15.30
2023-04-28T17:56:09.340Z,15.20
2023-04-28T17:58:57.056Z,15.10
2023-04-28T18:01:45.003Z,15.00
2023-04-28T18:04:33.822Z,14.90
2023-04-28T18:07:21.129Z,14.70
2023-04-28T18:10:08.937Z,14.60
2023-04-28T18:12:56.485Z,14.40
2023-04-28T18:15:46.392Z,14.30
2023-04-28T18:18:35.592Z,14.20
2023-04-28T18:21:24.856Z,14.10
2023-04-28T18:24:12.377Z,14.00
2023-04-28T18:27:00.409Z,13.90
2023-04-28T18:29:48.081Z,13.80
2023-04-28T18:32:35.825Z,13.80
2023-04-28T18:35:23.150Z,13.60
2023-04-28T18:38:11.982Z,13.60
2023-04-28T18:41:00.975Z,13.60
2023-04-28T18:43:48.402Z,13.50
2023-04-28T18:46:35.937Z,13.40
2023-04-28T18:49:24.824Z,13.40
2023-04-28T18:52:12.882Z,13.30
2023-04-28T18:55:01.674Z,13.30
2023-04-28T18:57:49.408Z,13.20
2023-04-28T19:00:37.440Z,13.30
2023-04-28T19:03:25.084Z,13.40
2023-04-28T19:06:13.680Z,13.40
2023-04-28T19:09:01.658Z,13.40
2023-04-28T19:11:50.492Z,13.40
2023-04-28T19:14:38.346Z,13.40
2023-04-28T19:17:26.329Z,13.30
2023-04-28T19:20:14.566Z,13.30
2023-04-28T19:23:02.957Z,13.30
2023-04-28T19:25:50.609Z,13.20
2023-04-28T19:28:39.612Z,13.20
2023-04-28T19:31:28.758Z,13.10
2023-04-28T19:34:16.751Z,13.10
2023-04-28T19:37:04.449Z,13.00
2023-04-28T19:39:53.108Z,13.00
2023-04-28T19:42:41.085Z,12.90
2023-04-28T19:45:30.432Z,12.90
2023-04-28T19:48:18.937Z,12.80
2023-04-28T19:51:07.220Z,12.80
2023-04-28T19:53:55.321Z,12.70
2023-04-28T19:56:42.822Z,12.70
2023-04-28T19:59:30.603Z,12.60
2023-04-28T20:02:21.023Z,12.60
2023-04-28T20:05:09.584Z,12.50
2023-04-28T20:07:57.432Z,12.50
2023-04-28T20:10:44.890Z,12.50
2023-04-28T20:13:33.015Z,12.40
2023-04-28T20:16:21.110Z,12.40
2023-04-28T20:19:10.924Z,12.30
2023-04-28T20:21:58.711Z,12.30
2023-04-28T20:24:46.320Z,12.30
2023-04-28T20:27:35.150Z,12.20
2023-04-28T20:30:22.688Z,12.20
2023-04-28T20:33:10.810Z,12.10
2023-04-28T20:35:59.961Z,12.10
2023-04-28T20:38:47.560Z,12.10
2023-04-28T20:41:35.154Z,12.10
2023-04-28T20:44:23.134Z,12.10
2023-04-28T20:47:11.026Z,12.10
2023-04-28T20:49:59.000Z,12.10
2023-04-28T20:52:49.129Z,12.10
2023-04-28T20:55:36.800Z,12.10
2023-04-28T20:58:24.618Z,12.00
2023-04-28T21:01:12.350Z,12.00
2023-04-28T21:04:00.546Z,12.00
2023-04-28T21:06:51.005Z,12.00
2023-04-28T21:09:42.220Z,12.00
2023-04-28T21:12:30.092Z,12.00
2023-04-28T21:15:18.120Z,12.00
2023-04-28T21:18:06.025Z,11.90
2023-04-28T21:20:54.753Z,11.90
2023-04-28T21:23:42.913Z,11.90
2023-04-28T21:26:31.990Z,11.90
2023-04-28T21:29:20.055Z,11.90
2023-04-28T21:32:07.816Z,11.90
2023-04-28T21:34:55.653Z,11.90
2023-04-28T21:37:43.122Z,11.90
2023-04-28T21:40:30.686Z,11.90
2023-04-28T21:43:20.426Z,11.80
2023-04-28T21:46:08.048Z,11.80
2023-04-28T21:48:55.791Z,11.80
2023-04-28T21:51:43.650Z,11.80
2023-04-28T21:54:31.804Z,11.80
2023-04-28T21:57:19.535Z,11.80
2023-04-28T22:00:12.686Z,11.90
2023-04-28T22:03:03.704Z,11.90
2023-04-28T22:05:51.842Z,11.90
2023-04-28T22:08:39.627Z,11.90
2023-04-28T22:11:28.404Z,11.90
2023-04-28T22:14:30.593Z,11.90
2023-04-28T22:17:24.646Z,11.90
2023-04-28T22:20:13.113Z,11.90
2023-04-28T22:23:00.589Z,11.90
2023-04-28T22:25:49.288Z,11.80
2023-04-28T22:28:37.611Z,11.90
2023-04-28T22:31:25.254Z,11.90
2023-04-28T22:34:13.983Z,11.90
2023-04-28T22:37:01.770Z,11.90
2023-04-28T22:39:49.437Z,11.80
2023-04-28T22:42:38.139Z,11.70
2023-04-28T22:45:25.740Z,11.60
2023-04-28T22:48:14.024Z,11.60
2023-04-28T22:51:04.130Z,11.50
2023-04-28T22:53:51.868Z,11.40
2023-04-28T22:56:39.351Z,11.40
2023-04-28T22:59:27.905Z,11.30
2023-04-28T23:02:15.934Z,11.30
2023-04-28T23:05:04.390Z,11.20
2023-04-28T23:07:53.490Z,11.20
2023-04-28T23:10:41.146Z,11.20
2023-04-28T23:13:28.680Z,11.20
2023-04-28T23:16:16.333Z,11.10
2023-04-28T23:19:03.891Z,11.10
2023-04-28T23:21:51.539Z,11.10
2023-04-28T23:24:40.964Z,11.10
2023-04-28T23:27:28.818Z,11.10
2023-04-28T23:30:17.185Z,11.00
2023-04-28T23:33:05.231Z,11.00
2023-04-28T23:35:53.557Z,11.00
2023-04-28T23:38:41.369Z,11.00
2023-04-28T23:41:30.571Z,11.00
2023-04-28T23:44:18.489Z,11.00
2023-04-28T23:47:05.934Z,11.00
2023-04-28T23:49:53.763Z,11.00
2023-04-28T23:52:42.835Z,11.00
2023-04-28T23:55:30.441Z,11.00
2023-04-28T23:58:19.312Z,10.90
